Time;durP1;ratioP1;P1;durP2;ratioP2;P2;SDS_P1;SDS_P2;PMS_P1;PMS_P2;Temp;Humidity;BMP_temperature;BMP_pressure;BME280_temperature;BME280_humidity;BME280_pressure;Samples;Min_cycle;Max_cycle;Signal;HPM_P1;HPM_P2
2021/10/05 00:00:55;;;;;;;4.10;1.85;;;10.70;99.90;;;9.15;92.67;100986.56;2569693;30;138124;-40
2021/10/05 00:03:22;;;;;;;;;;;10.70;99.90;;;9.17;92.38;100992.66;2569298;30;137264;-40
2021/10/05 00:05:50;;;;;;;4.72;2.13;;;10.70;99.90;;;9.18;92.23;100983.44;2569646;30;136805;-39
2021/10/05 00:08:20;;;;;;;3.92;1.80;;;10.70;99.90;;;9.14;92.71;100982.16;2570779;30;137830;-40
2021/10/05 00:10:47;;;;;;;5.13;1.88;;;10.70;99.90;;;9.12;92.83;100986.97;2568865;30;138329;-39
2021/10/05 00:13:15;;;;;;;3.95;1.77;;;10.70;99.90;;;9.08;93.21;100981.06;2567752;30;138074;-40
2021/10/05 00:15:43;;;;;;;2.97;1.70;;;10.70;99.90;;;9.04;93.58;100983.34;2568327;30;137666;-40
2021/10/05 00:18:10;;;;;;;5.88;1.77;;;10.60;99.90;;;9.04;94.06;100977.06;2567164;30;138040;-39
2021/10/05 00:20:38;;;;;;;4.60;1.80;;;10.60;99.90;;;9.03;94.35;100970.78;2569359;30;137685;-39
2021/10/05 00:23:06;;;;;;;4.45;2.28;;;10.60;99.90;;;9.10;93.54;100973.53;2568760;30;137390;-39
2021/10/05 00:25:38;;;;;;;3.72;2.08;;;10.60;99.90;;;9.10;94.04;100973.53;2568951;30;139045;-39
2021/10/05 00:28:06;;;;;;;6.38;2.10;;;10.60;99.90;;;9.12;93.61;100959.75;2571357;30;138317;-40
2021/10/05 00:30:34;;;;;;;4.10;2.05;;;10.70;99.90;;;9.11;93.67;100958.06;2570510;30;138419;-40
2021/10/05 00:33:02;;;;;;;4.43;1.90;;;10.60;99.90;;;9.10;93.77;100950.94;2569299;30;137422;-39
2021/10/05 00:35:30;;;;;;;5.65;2.03;;;10.70;99.90;;;9.14;94.00;100944.03;2567276;30;137408;-40
2021/10/05 00:38:00;;;;;;;3.05;2.00;;;10.70;99.90;;;9.13;93.44;100940.47;2569981;30;137404;-39
2021/10/05 00:40:28;;;;;;;3.90;1.90;;;10.70;99.90;;;9.09;93.81;100939.19;2568475;30;139107;-39
2021/10/05 00:42:58;;;;;;;3.42;2.08;;;10.70;99.90;;;9.19;93.39;100939.69;2568587;30;137226;-39
2021/10/05 00:45:25;;;;;;;4.15;2.10;;;10.70;99.90;;;9.14;93.34;100938.59;2567500;30;136786;-40
2021/10/05 00:47:53;;;;;;;2.95;1.98;;;10.70;99.90;;;9.15;93.37;100929.41;2569357;30;137502;-39
2021/10/05 00:50:21;;;;;;;4.28;1.85;;;10.70;99.90;;;9.13;93.20;100915.16;2568924;30;137350;-39
2021/10/05 00:52:51;;;;;;;;;;;10.70;99.90;;;9.14;93.48;100916.81;2569121;30;137386;-40
2021/10/05 00:55:19;;;;;;;4.63;2.20;;;10.70;99.90;;;9.12;93.66;100919.75;2571265;30;137366;-39
2021/10/05 00:57:51;;;;;;;4.03;1.98;;;10.60;99.90;;;9.13;93.81;100907.81;2570079;30;137443;-40
2021/10/05 01:00:21;;;;;;;4.40;2.28;;;10.70;99.90;;;9.13;93.96;100910.53;2567626;30;137070;-40
2021/10/05 01:02:50;;;;;;;4.43;2.38;;;10.70;99.90;;;9.14;93.99;100917.66;2570740;30;137329;-39
2021/10/05 01:05:18;;;;;;;4.13;2.33;;;10.70;99.90;;;9.09;93.76;100913.88;2569117;30;138371;-40
2021/10/05 01:07:47;;;;;;;;;;;10.70;99.90;;;9.07;93.69;100901.31;2570793;30;137576;-39
2021/10/05 01:10:17;;;;;;;4.40;2.10;;;10.60;99.90;;;9.07;93.66;100895.00;2566704;30;138221;-39
2021/10/05 01:12:49;;;;;;;4.95;2.22;;;10.60;99.90;;;9.04;93.57;100888.09;2567373;30;137768;-40
2021/10/05 01:15:19;;;;;;;4.22;2.10;;;10.60;99.90;;;9.08;93.94;100883.06;2568588;30;139539;-40
2021/10/05 01:17:47;;;;;;;3.28;1.85;;;10.60;99.90;;;9.03;94.03;100878.25;2565821;30;137905;-40
2021/10/05 01:20:15;;;;;;;6.20;2.60;;;10.60;99.90;;;9.03;94.04;100880.97;2568366;30;139294;-39
2021/10/05 01:22:43;;;;;;;4.07;2.20;;;10.60;99.90;;;9.03;94.16;100877.41;2570011;30;137799;-40
2021/10/05 01:25:14;;;;;;;4.63;2.28;;;10.50;99.90;;;9.02;94.31;100876.59;2570390;30;138306;-39
2021/10/05 01:27:51;;;;;;;3.88;2.10;;;10.50;99.90;;;9.03;94.42;100872.81;2570143;30;136898;-40
2021/10/05 01:30:21;;;;;;;3.08;2.15;;;10.50;99.90;;;9.16;93.76;100877.50;2571611;30;138296;-39
2021/10/05 01:32:49;;;;;;;5.60;2.50;;;10.60;99.90;;;9.20;93.60;100861.56;2570903;30;137528;-39
2021/10/05 01:35:18;;;;;;;6.68;2.17;;;10.70;99.90;;;9.16;93.80;100863.03;2566893;30;137397;-39
2021/10/05 01:37:46;;;;;;;;;;;10.70;99.90;;;9.17;93.77;100859.25;2569632;30;136816;-39
2021/10/05 01:40:14;;;;;;;3.50;2.10;;;10.70;99.90;;;9.19;93.88;100849.84;2569339;30;138114;-40
2021/10/05 01:42:41;;;;;;;4.50;2.30;;;10.70;99.90;;;9.19;93.66;100854.44;2567769;30;137610;-40
2021/10/05 01:45:09;;;;;;;4.30;2.13;;;10.70;99.90;;;9.18;93.54;100841.88;2569289;30;139099;-39
2021/10/05 01:47:39;;;;;;;4.85;2.13;;;10.70;99.90;;;9.07;93.70;100819.66;2574843;30;138318;-41
2021/10/05 01:50:07;;;;;;;4.38;2.15;;;10.70;99.90;;;9.17;93.59;100824.72;2567975;30;137309;-39
2021/10/05 01:52:36;;;;;;;2.78;2.10;;;10.70;99.90;;;9.15;93.74;100832.25;2566714;30;137597;-38
2021/10/05 01:55:08;;;;;;;5.97;2.50;;;10.70;99.90;;;9.17;94.12;100829.31;2568057;30;138155;-39
2021/10/05 01:57:36;;;;;;;5.95;2.33;;;10.70;99.90;;;9.26;93.41;100829.97;2567560;30;137505;-39
2021/10/05 02:00:08;;;;;;;;;;;10.70;99.90;;;9.21;93.63;100827.88;2567717;30;138863;-41
2021/10/05 02:02:35;;;;;;;3.97;2.15;;;10.70;99.90;;;9.24;93.40;100829.34;2567100;30;137037;-40
2021/10/05 02:05:03;;;;;;;3.70;1.90;;;10.70;99.90;;;9.20;93.38;100812.56;2569088;30;138210;-41
2021/10/05 02:07:32;;;;;;;3.22;2.00;;;10.80;99.90;;;9.22;93.62;100815.94;2568064;30;138331;-41
2021/10/05 02:09:59;;;;;;;3.92;2.40;;;10.70;99.90;;;9.16;94.06;100809.44;2565519;30;139528;-40
2021/10/05 02:12:27;;;;;;;4.05;2.17;;;10.70;99.90;;;9.19;93.43;100806.31;2567943;30;137437;-41
2021/10/05 02:14:55;;;;;;;4.57;2.00;;;10.70;99.90;;;9.17;94.04;100807.53;2568738;30;139222;-41
2021/10/05 19:50:14;;;;;;;5.55;1.95;;;13.20;99.90;;;10.65;100.00;100290.16;2549479;30;136825;-39
2021/10/05 19:52:44;;;;;;;5.43;2.10;;;12.10;99.90;;;10.57;99.49;100287.72;2569065;30;137505;-40
2021/10/05 19:55:13;;;;;;;4.13;1.58;;;12.10;99.90;;;10.53;99.40;100296.56;2570774;30;138369;-40
2021/10/05 19:57:42;;;;;;;4.45;1.80;;;12.00;99.90;;;10.63;99.18;100296.91;2570068;30;138007;-39
2021/10/05 20:00:15;;;;;;;3.15;1.25;;;12.10;99.90;;;10.54;99.31;100306.44;2571662;30;138469;-39
2021/10/05 20:02:43;;;;;;;7.47;1.23;;;12.10;99.90;;;10.55;99.78;100308.09;2570171;30;137024;-40
2021/10/05 20:05:11;;;;;;;2.38;0.98;;;12.00;99.90;;;10.61;99.27;100309.94;2568479;30;138288;-40
2021/10/05 20:07:39;;;;;;;4.80;1.52;;;12.10;99.90;;;10.58;99.20;100311.22;2569548;30;138271;-40
2021/10/05 20:10:08;;;;;;;6.57;1.38;;;12.10;99.90;;;10.53;99.39;100315.66;2568377;30;138330;-39
2021/10/05 20:12:36;;;;;;;4.95;1.20;;;12.00;99.90;;;10.52;99.64;100317.59;2567380;30;137417;-40
2021/10/05 20:15:05;;;;;;;5.43;1.33;;;12.00;99.90;;;10.47;99.55;100320.13;2569804;30;137373;-40
2021/10/05 20:17:32;;;;;;;6.82;1.33;;;12.00;99.90;;;10.53;100.00;100334.75;2568908;30;136937;-39
2021/10/05 20:20:00;;;;;;;2.85;0.93;;;12.00;99.90;;;10.59;99.45;100339.31;2569808;30;139296;-40
2021/10/05 20:22:28;;;;;;;4.18;0.93;;;12.00;99.90;;;10.62;99.03;100339.72;2568294;30;137092;-39
2021/10/05 20:24:55;;;;;;;4.20;0.88;;;12.10;99.90;;;10.59;99.27;100348.34;2568918;30;137230;-39
2021/10/05 20:27:23;;;;;;;6.05;1.40;;;12.00;99.90;;;10.63;99.43;100341.38;2569002;30;137115;-40
2021/10/05 20:29:51;;;;;;;5.13;1.17;;;12.10;99.90;;;10.57;98.95;100342.28;2567813;30;139357;-39
2021/10/05 20:32:19;;;;;;;3.72;0.88;;;12.10;99.90;;;10.63;99.36;100351.47;2569588;30;137073;-40
2021/10/05 20:34:48;;;;;;;3.33;1.00;;;12.10;99.90;;;10.62;99.71;100339.72;2570464;30;137407;-40
2021/10/05 20:37:15;;;;;;;2.92;1.10;;;12.10;99.90;;;10.57;99.48;100346.88;2569476;30;137420;-40
2021/10/05 20:39:43;;;;;;;3.15;0.98;;;12.10;99.90;;;10.55;99.39;100354.47;2570862;30;138576;-40
2021/10/05 20:42:11;;;;;;;2.58;1.15;;;12.00;99.90;;;10.53;99.83;100359.31;2569780;30;137631;-40
2021/10/05 20:44:38;;;;;;;4.05;1.00;;;12.00;99.90;;;10.54;99.59;100358.25;2569871;30;137485;-40
2021/10/05 20:47:06;;;;;;;;;;;12.00;99.90;;;10.49;100.00;100359.75;2568447;30;137122;-40
2021/10/05 20:49:34;;;;;;;2.67;0.80;;;12.00;99.90;;;10.48;99.78;100352.63;2568750;30;137717;-39
2021/10/05 20:52:02;;;;;;;2.75;0.75;;;12.00;99.90;;;10.58;99.92;100370.38;2566960;30;137795;-40
2021/10/05 20:54:29;;;;;;;;;;;12.00;99.90;;;10.60;99.63;100380.03;2569496;30;138247;-39
2021/10/05 20:56:57;;;;;;;3.25;1.10;;;12.00;99.90;;;10.58;99.88;100381.28;2570705;30;136653;-40
2021/10/05 20:59:25;;;;;;;4.57;0.90;;;12.10;99.90;;;10.62;100.00;100386.09;2569065;30;138268;-40
2021/10/05 21:01:52;;;;;;;5.68;1.63;;;12.10;99.90;;;10.65;99.99;100390.28;2568625;30;137368;-39
2021/10/05 21:04:20;;;;;;;4.97;1.15;;;12.10;99.90;;;10.74;99.87;100390.78;2569681;30;138238;-39
2021/10/05 21:06:48;;;;;;;3.80;1.17;;;12.10;99.90;;;10.70;99.01;100390.44;2568984;30;136971;-40
2021/10/05 21:09:18;;;;;;;2.25;1.00;;;12.10;99.90;;;10.72;99.20;100393.75;2568981;30;140574;-40
2021/10/05 21:11:46;;;;;;;4.28;1.10;;;12.10;99.90;;;10.72;98.82;100399.22;2569849;30;137309;-39
2021/10/05 21:14:17;;;;;;;3.72;1.02;;;12.20;99.90;;;10.78;98.18;100401.06;2568265;30;138462;-40
2021/10/05 21:16:46;;;;;;;5.03;1.30;;;12.20;99.90;;;10.72;97.74;100399.22;2569493;30;136857;-39
2021/10/05 21:19:14;;;;;;;6.10;1.65;;;12.20;99.90;;;10.76;97.30;100408.63;2566252;30;138529;-40
2021/10/05 21:21:43;;;;;;;7.13;1.20;;;12.20;99.90;;;10.82;97.39;100408.78;2569985;30;137899;-40
2021/10/05 21:24:11;;;;;;;3.80;1.20;;;12.20;99.90;;;10.76;97.50;100410.53;2568589;30;137841;-40
2021/10/05 21:26:42;;;;;;;3.00;1.00;;;12.20;99.90;;;10.75;97.89;100406.97;2570404;30;136785;-40
2021/10/05 21:29:09;;;;;;;2.83;1.10;;;12.20;99.90;;;10.76;97.75;100403.16;2567129;30;137408;-40
2021/10/05 21:31:37;;;;;;;3.90;1.10;;;12.20;99.90;;;10.82;97.65;100414.25;2568295;30;137299;-40
2021/10/05 21:34:05;;;;;;;4.30;1.20;;;12.20;99.90;;;10.82;97.49;100420.53;2566851;30;138461;-40
2021/10/05 21:36:32;;;;;;;;;;;12.20;99.90;;;10.76;97.30;100418.72;2568839;30;138375;-40
2021/10/05 21:39:00;;;;;;;3.17;0.95;;;12.20;99.90;;;10.81;97.91;100423.47;2569467;30;138368;-40
2021/10/05 21:41:27;;;;;;;6.13;1.30;;;12.20;99.90;;;10.79;97.06;100421.00;2569008;30;137699;-40
2021/10/05 21:43:55;;;;;;;;;;;12.20;99.90;;;10.85;97.21;100430.16;2567949;30;137415;-40
2021/10/05 21:46:23;;;;;;;4.22;1.13;;;12.30;99.90;;;10.89;97.07;100442.31;2570586;30;138258;-40
2021/10/05 21:48:50;;;;;;;3.47;1.02;;;12.30;99.90;;;10.85;96.07;100439.19;2569284;30;138551;-40
2021/10/05 21:51:18;;;;;;;4.22;1.30;;;12.30;99.90;;;10.85;96.67;100438.34;2568859;30;137332;-40
2021/10/05 21:53:45;;;;;;;3.92;1.10;;;12.30;99.90;;;10.82;96.79;100441.53;2567419;30;138694;-40
2021/10/05 21:56:13;;;;;;;3.42;0.93;;;12.30;99.90;;;10.80;97.24;100444.50;2568790;30;137703;-40
2021/10/05 21:58:41;;;;;;;3.47;1.00;;;12.20;99.90;;;10.77;96.09;100443.03;2568573;30;137895;-39
2021/10/05 22:01:09;;;;;;;4.45;1.23;;;12.20;99.90;;;10.81;95.73;100442.59;2569922;30;137552;-40
2021/10/05 22:03:36;;;;;;;;;;;12.20;99.90;;;10.82;95.97;100445.09;2569582;30;138159;-40
2021/10/05 22:06:04;;;;;;;4.43;1.27;;;12.20;99.90;;;10.85;95.46;100452.00;2568251;30;137744;-40
2021/10/05 22:08:32;;;;;;;4.88;0.98;;;12.30;99.90;;;10.87;94.92;100452.59;2568875;30;137631;-40
2021/10/05 22:11:00;;;;;;;2.88;1.23;;;12.30;99.90;;;10.87;95.42;100449.88;2570846;30;137619;-40
2021/10/05 22:13:29;;;;;;;3.90;0.90;;;12.30;99.90;;;10.89;94.29;100455.97;2568031;30;137276;-40
2021/10/05 22:15:56;;;;;;;;;;;12.30;99.90;;;10.85;94.42;100454.72;2569025;30;137774;-40
2021/10/05 22:18:24;;;;;;;4.50;0.98;;;12.30;99.90;;;10.82;94.12;100457.91;2571155;30;138363;-40
2021/10/05 22:20:52;;;;;;;3.75;0.90;;;12.30;99.90;;;10.76;94.56;100460.47;2567301;30;137194;-40
2021/10/05 22:23:19;;;;;;;3.55;0.85;;;12.20;99.90;;;10.76;94.38;100460.47;2568966;30;137410;-39
2021/10/05 22:25:47;;;;;;;5.03;1.10;;;12.20;99.90;;;10.83;94.32;100462.31;2569805;30;138937;-41
2021/10/05 22:28:15;;;;;;;2.42;0.90;;;12.30;99.90;;;10.73;94.73;100466.38;2569028;30;138338;-40
2021/10/05 22:30:42;;;;;;;4.93;1.00;;;12.20;99.90;;;10.71;94.99;100468.50;2568580;30;136825;-39
2021/10/05 22:33:10;;;;;;;5.03;1.40;;;12.20;99.90;;;10.72;94.72;100464.72;2568710;30;137689;-40
2021/10/05 22:35:38;;;;;;;5.15;0.90;;;12.10;99.90;;;10.71;93.88;100473.94;2571465;30;137861;-40
2021/10/05 22:38:06;;;;;;;6.45;1.20;;;12.10;99.90;;;10.72;94.16;100477.50;2569232;30;138303;-40
2021/10/05 22:40:34;;;;;;;5.65;1.08;;;12.10;99.90;;;10.69;94.18;100481.53;2570742;30;137627;-40
2021/10/05 22:43:01;;;;;;;5.30;1.20;;;12.20;99.90;;;10.79;93.40;100483.75;2568692;30;138359;-40
2021/10/05 22:45:29;;;;;;;3.90;1.30;;;12.20;99.90;;;10.70;94.22;100483.19;2569615;30;138251;-40
2021/10/05 22:47:57;;;;;;;5.10;1.20;;;12.10;99.90;;;10.72;94.14;100488.41;2570284;30;138408;-41
2021/10/05 22:50:25;;;;;;;3.55;1.10;;;12.20;99.90;;;10.72;93.47;100492.00;2569921;30;137454;-40
2021/10/05 22:52:52;;;;;;;4.90;1.20;;;12.20;99.90;;;10.69;93.11;100491.59;2570808;30;137384;-39
2021/10/05 22:55:20;;;;;;;6.18;1.20;;;12.10;99.90;;;10.68;94.42;100488.03;2568444;30;137501;-40
2021/10/05 22:57:49;;;;;;;5.35;1.20;;;12.10;99.90;;;10.65;94.24;100481.13;2568800;30;138842;-40
2021/10/05 23:00:18;;;;;;;3.88;1.10;;;12.10;99.90;;;10.60;94.30;100489.13;2570852;30;137367;-40
2021/10/05 23:02:46;;;;;;;5.15;1.10;;;12.10;99.90;;;10.67;93.52;100486.38;2568997;30;138613;-40
2021/10/05 23:05:14;;;;;;;4.07;0.93;;;12.10;99.90;;;10.67;93.82;100499.16;2570165;30;136703;-40
2021/10/05 23:07:42;;;;;;;;;;;12.10;99.90;;;10.58;93.85;100499.44;2569967;30;138278;-40
2021/10/05 23:10:10;;;;;;;6.25;1.20;;;12.00;99.90;;;10.54;93.99;100500.09;2569837;30;137808;-40
2021/10/05 23:12:38;;;;;;;3.78;1.02;;;12.00;99.90;;;10.48;94.10;100508.09;2569369;30;138194;-40
2021/10/05 23:15:06;;;;;;;4.78;0.90;;;12.00;99.90;;;10.46;94.35;100509.38;2569810;30;137295;-40
2021/10/05 23:17:34;;;;;;;3.30;0.75;;;11.90;99.90;;;10.32;94.54;100511.31;2573499;30;139405;-40
2021/10/05 23:20:03;;;;;;;3.17;1.00;;;11.80;99.90;;;10.24;94.64;100509.69;2566998;30;138932;-40
2021/10/05 23:22:31;;;;;;;3.10;0.95;;;11.80;99.90;;;10.18;95.05;100518.72;2568785;30;137106;-40
2021/10/05 23:24:58;;;;;;;;;;;11.70;99.90;;;10.12;95.02;100525.03;2568969;30;137518;-39
2021/10/05 23:27:27;;;;;;;4.20;1.00;;;11.70;99.90;;;10.08;95.06;100524.66;2566023;30;138624;-40
2021/10/05 23:29:55;;;;;;;2.97;1.02;;;11.60;99.90;;;9.92;95.14;100515.91;2569361;30;137629;-40
2021/10/05 23:32:22;;;;;;;;;;;11.60;99.90;;;9.91;95.31;100533.31;2569457;30;139297;-40
2021/10/05 23:34:50;;;;;;;4.93;0.80;;;11.50;99.90;;;9.87;95.89;100534.81;2568391;30;137401;-40
2021/10/05 23:37:18;;;;;;;2.40;0.90;;;11.40;99.90;;;9.79;96.38;100545.91;2566907;30;138775;-40
2021/10/05 23:39:45;;;;;;;3.97;1.10;;;11.30;99.90;;;9.82;96.57;100541.94;2570801;30;136977;-39
2021/10/05 23:42:13;;;;;;;4.22;1.25;;;11.30;99.90;;;9.82;97.03;100537.34;2570789;30;138128;-40
2021/10/05 23:44:40;;;;;;;5.40;1.30;;;11.30;99.90;;;9.86;96.51;100549.47;2568330;30;137694;-40
2021/10/05 23:47:08;;;;;;;2.65;1.00;;;11.40;99.90;;;9.91;96.46;100555.13;2570185;30;138173;-40
2021/10/05 23:49:35;;;;;;;4.50;0.90;;;11.40;99.90;;;9.86;96.23;100559.53;2568778;30;137464;-40
2021/10/05 23:52:03;;;;;;;4.13;1.20;;;11.30;99.90;;;9.86;95.84;100554.94;2570731;30;137347;-40
2021/10/05 23:54:31;;;;;;;3.17;1.00;;;11.40;99.90;;;9.82;95.74;100561.84;2566206;30;137748;-40
2021/10/05 23:56:59;;;;;;;2.30;1.10;;;11.30;99.90;;;9.80;96.06;100561.22;2570541;30;138303;-39
2021/10/05 23:59:26;;;;;;;3.70;1.00;;;11.30;99.90;;;9.75;96.09;100558.28;2568768;30;137466;-39
